Cooper, Texas
Current Conditions -  °F | °C
As of 11:55 AM on Saturday 22 Nov 2014 (Local Time) from KSLR Reporting Station
Overcast Overcast  
Wind Chill: 66°   Ceiling: 2200
Heat Index: 66°   Visibility: 10mi
Dew Point: 55°   Wind: 13mph
Humidity: 68%   Direction: 150°SSE
Pressure: 30.04"   Gusts: 17mph
Location:  33.37°N, 95.69°W
Report Text: KSLR 221755Z AUTO 15011G15KT 10SM BKN022 OVC110 19/13 A3004 RMK AO2 LTG DSNT SW THRU NW T01870127 10187 20148
Loading
Personal Weather Stations






























Interactive Weather Map New forecast layout! Learn more

10-Day Weather Forecast

Advertisements
Track Severe Weather on mobile